createdAt,value
2023-02-15T00:01:28.203Z,3.55
2023-02-15T00:04:47.111Z,3.46
2023-02-15T00:07:50.584Z,3.37
2023-02-15T00:10:55.043Z,3.25
2023-02-15T00:13:59.605Z,3.16
2023-02-15T00:17:02.750Z,3.04
2023-02-15T00:20:07.725Z,3.00
2023-02-15T00:23:11.496Z,2.90
2023-02-15T00:26:15.907Z,2.90
2023-02-15T00:29:22.068Z,2.86
2023-02-15T00:32:25.732Z,2.81
2023-02-15T00:35:28.869Z,2.75
2023-02-15T00:38:33.079Z,2.76
2023-02-15T00:41:38.008Z,2.74
2023-02-15T00:44:41.158Z,2.66
2023-02-15T00:47:44.286Z,2.62
2023-02-15T00:50:48.444Z,2.54
2023-02-15T00:53:52.225Z,2.50
2023-02-15T00:56:56.621Z,2.41
2023-02-15T00:59:59.914Z,2.29
2023-02-15T01:03:03.050Z,2.29
2023-02-15T01:06:06.572Z,2.22
2023-02-15T01:09:09.742Z,2.11
2023-02-15T01:12:15.057Z,2.11
2023-02-15T01:15:18.267Z,2.01
2023-02-15T01:18:21.824Z,1.94
2023-02-15T01:21:27.648Z,1.90
2023-02-15T01:24:30.618Z,1.89
2023-02-15T01:27:35.132Z,1.86
2023-02-15T01:30:38.676Z,1.76
2023-02-15T01:33:42.581Z,1.65
2023-02-15T01:36:46.300Z,1.60
2023-02-15T01:39:51.673Z,1.60
2023-02-15T01:42:59.900Z,1.57
2023-02-15T01:46:03.436Z,1.55
2023-02-15T01:49:14.350Z,1.55
2023-02-15T01:52:20.693Z,1.49
2023-02-15T01:55:26.228Z,1.45
2023-02-15T01:58:31.896Z,1.52
2023-02-15T02:01:36.117Z,1.53
2023-02-15T02:04:46.095Z,1.53
2023-02-15T02:07:53.335Z,1.46
2023-02-15T02:10:56.594Z,1.46
2023-02-15T02:14:01.250Z,1.52
2023-02-15T02:17:14.942Z,1.49
2023-02-15T02:20:53.396Z,1.55
2023-02-15T02:24:31.250Z,1.63
2023-02-15T02:27:41.024Z,1.59
2023-02-15T02:31:19.523Z,1.50
2023-02-15T02:34:31.581Z,1.44
2023-02-15T02:37:48.080Z,1.39
2023-02-15T02:41:03.245Z,1.24
2023-02-15T02:44:15.226Z,1.19
2023-02-15T02:47:25.410Z,1.12
2023-02-15T02:50:32.246Z,1.12
2023-02-15T02:53:36.210Z,1.14
2023-02-15T02:56:43.846Z,1.11
2023-02-15T02:59:49.673Z,1.15
2023-02-15T03:02:59.827Z,1.15
2023-02-15T03:06:08.965Z,1.17
2023-02-15T03:09:16.439Z,1.08
2023-02-15T03:12:23.669Z,1.07
2023-02-15T03:15:49.539Z,1.03
2023-02-15T03:18:59.119Z,0.99
2023-02-15T03:22:11.054Z,0.98
2023-02-15T03:25:19.007Z,0.94
2023-02-15T03:28:27.716Z,0.92
2023-02-15T03:31:39.834Z,0.90
2023-02-15T03:34:43.352Z,0.88
2023-02-15T03:37:53.037Z,0.79
2023-02-15T03:41:12.854Z,0.75
2023-02-15T03:44:23.707Z,0.70
2023-02-15T03:47:32.260Z,0.67
2023-02-15T03:51:04.216Z,0.60
2023-02-15T03:54:12.070Z,0.51
2023-02-15T03:57:40.302Z,0.46
2023-02-15T04:01:08.995Z,0.42
2023-02-15T04:04:18.469Z,0.33
2023-02-15T04:07:25.574Z,0.24
2023-02-15T04:10:47.607Z,0.17
2023-02-15T04:13:57.214Z,0.11
2023-02-15T04:16:59.360Z,-0.02
2023-02-15T04:20:19.799Z,0.01
2023-02-15T04:23:41.608Z,-0.03
2023-02-15T04:26:50.778Z,-0.10
2023-02-15T04:29:56.265Z,-0.12
2023-02-15T04:32:59.457Z,-0.18
2023-02-15T04:36:02.903Z,-0.17
2023-02-15T04:39:07.233Z,-0.21
2023-02-15T04:42:11.672Z,-0.28
2023-02-15T04:45:14.734Z,-0.25
2023-02-15T04:48:18.122Z,-0.33
2023-02-15T04:51:21.273Z,-0.34
2023-02-15T04:54:24.516Z,-0.33
2023-02-15T04:57:28.876Z,-0.33
2023-02-15T05:00:35.518Z,-0.32
2023-02-15T05:03:38.924Z,-0.35
2023-02-15T05:06:42.306Z,-0.41
2023-02-15T05:09:45.704Z,-0.42
2023-02-15T05:12:50.191Z,-0.45
2023-02-15T05:15:54.844Z,-0.51
2023-02-15T05:18:58.155Z,-0.56
2023-02-15T05:22:01.658Z,-0.62
2023-02-15T05:25:22.729Z,-0.59
2023-02-15T05:28:30.083Z,-0.60
2023-02-15T05:31:34.339Z,-0.55
2023-02-15T05:34:37.858Z,-0.47
2023-02-15T05:37:40.889Z,-0.47
2023-02-15T05:40:43.926Z,-0.55
2023-02-15T05:43:52.365Z,-0.59
2023-02-15T05:46:55.389Z,-0.62
2023-02-15T05:49:58.462Z,-0.60
2023-02-15T05:53:01.531Z,-0.57
2023-02-15T05:56:06.291Z,-0.56
2023-02-15T05:59:10.904Z,-0.61
2023-02-15T06:02:14.168Z,-0.55
2023-02-15T06:05:17.446Z,-0.67
2023-02-15T06:08:21.565Z,-0.60
2023-02-15T06:11:24.718Z,-0.51
2023-02-15T06:14:29.317Z,-0.59
2023-02-15T06:17:32.588Z,-0.72
2023-02-15T06:20:35.668Z,-0.72
2023-02-15T06:23:39.058Z,-0.76
2023-02-15T06:26:42.222Z,-0.84
2023-02-15T06:29:46.627Z,-0.80
2023-02-15T06:32:50.213Z,-0.77
2023-02-15T06:35:54.106Z,-0.72
2023-02-15T06:38:58.094Z,-0.68
2023-02-15T06:42:01.498Z,-0.74
2023-02-15T06:45:08.609Z,-0.83
2023-02-15T06:48:12.139Z,-0.81
2023-02-15T06:51:15.722Z,-0.73
2023-02-15T06:54:18.976Z,-0.73
2023-02-15T06:57:22.061Z,-0.64
2023-02-15T07:00:26.684Z,-0.61
2023-02-15T07:03:29.772Z,-0.65
2023-02-15T07:06:34.239Z,-0.57
2023-02-15T07:09:37.496Z,-0.50
2023-02-15T07:12:45.086Z,-0.52
2023-02-15T07:15:50.580Z,-0.61
2023-02-15T07:18:54.051Z,-0.54
2023-02-15T07:21:57.158Z,-0.49
2023-02-15T07:25:00.178Z,-0.58
2023-02-15T07:28:06.052Z,-0.46
2023-02-15T07:31:10.987Z,-0.51
2023-02-15T07:34:14.394Z,-0.45
2023-02-15T07:37:17.508Z,-0.39
2023-02-15T07:40:23.366Z,-0.47
2023-02-15T07:43:26.645Z,-0.54
2023-02-15T07:46:31.442Z,-0.49
2023-02-15T07:49:34.633Z,-0.50
2023-02-15T07:52:37.759Z,-0.51
2023-02-15T07:55:40.916Z,-0.49
2023-02-15T07:58:53.539Z,-0.42
2023-02-15T08:01:58.570Z,-0.44
2023-02-15T08:05:03.861Z,-0.31
2023-02-15T08:08:07.554Z,-0.35
2023-02-15T08:11:33.870Z,-0.38
2023-02-15T08:14:37.298Z,-0.37
2023-02-15T08:17:42.320Z,-0.23
2023-02-15T08:20:51.316Z,-0.31
2023-02-15T08:23:54.727Z,-0.24
2023-02-15T08:27:00.291Z,-0.25
2023-02-15T08:30:03.522Z,-0.23
2023-02-15T08:33:08.067Z,-0.17
2023-02-15T08:36:14.011Z,-0.19
2023-02-15T08:39:19.886Z,-0.17
2023-02-15T08:42:22.993Z,-0.13
2023-02-15T08:45:26.521Z,-0.08
2023-02-15T08:48:30.999Z,0.03
2023-02-15T08:51:38.368Z,0.14
2023-02-15T08:54:41.457Z,0.17
2023-02-15T08:57:46.483Z,0.18
2023-02-15T09:00:49.599Z,0.31
2023-02-15T09:03:58.412Z,0.35
2023-02-15T09:07:01.598Z,0.29
2023-02-15T09:10:04.911Z,0.34
2023-02-15T09:13:07.991Z,0.34
2023-02-15T09:16:11.929Z,0.45
2023-02-15T09:19:18.299Z,0.66
2023-02-15T09:22:21.356Z,0.46
2023-02-15T09:25:24.578Z,0.49
2023-02-15T09:28:32.795Z,0.65
2023-02-15T09:31:42.262Z,0.77
2023-02-15T09:34:46.639Z,0.91
2023-02-15T09:37:49.817Z,0.91
2023-02-15T09:41:09.049Z,1.01
2023-02-15T09:44:22.822Z,0.96
2023-02-15T09:47:47.961Z,0.97
2023-02-15T09:51:14.843Z,1.16
2023-02-15T09:54:56.384Z,1.28
2023-02-15T09:58:10.012Z,1.20
2023-02-15T10:01:21.910Z,1.31
2023-02-15T10:04:46.177Z,1.25
2023-02-15T10:08:38.018Z,1.45
2023-02-15T10:12:00.341Z,1.73
2023-02-15T10:15:26.401Z,1.84
2023-02-15T10:18:53.293Z,1.88
2023-02-15T10:22:09.900Z,1.95
2023-02-15T10:25:31.674Z,2.14
2023-02-15T10:28:46.904Z,2.23
2023-02-15T10:31:54.160Z,2.20
2023-02-15T10:35:04.291Z,2.18
2023-02-15T10:38:21.366Z,2.34
2023-02-15T10:41:38.163Z,2.43
2023-02-15T10:44:57.680Z,2.68
2023-02-15T10:48:27.145Z,2.74
2023-02-15T10:51:40.612Z,3.00
2023-02-15T10:54:53.310Z,2.90
2023-02-15T10:58:10.691Z,2.87
2023-02-15T11:01:22.352Z,2.91
2023-02-15T11:04:46.741Z,3.00
2023-02-15T11:07:53.068Z,3.06
2023-02-15T11:11:01.998Z,3.42
2023-02-15T11:14:17.040Z,3.80
2023-02-15T11:17:29.067Z,4.08
2023-02-15T11:20:37.949Z,4.36
2023-02-15T11:23:46.485Z,4.67
2023-02-15T11:26:57.789Z,4.98
2023-02-15T11:30:10.377Z,5.21
2023-02-15T11:33:23.329Z,5.32
2023-02-15T11:36:30.956Z,5.32
2023-02-15T11:39:36.954Z,5.61
2023-02-15T11:42:43.839Z,5.74
2023-02-15T11:45:48.765Z,5.84
2023-02-15T11:48:52.113Z,5.84
2023-02-15T11:51:57.388Z,6.33
2023-02-15T11:55:00.890Z,6.57
2023-02-15T11:58:43.603Z,6.83
2023-02-15T12:01:53.859Z,7.17
2023-02-15T12:05:00.375Z,7.48
2023-02-15T12:08:11.511Z,7.52
2023-02-15T12:11:21.762Z,7.62
2023-02-15T12:14:28.241Z,7.69
2023-02-15T12:17:37.697Z,7.94
2023-02-15T12:20:48.987Z,8.18
2023-02-15T12:23:55.823Z,8.15
2023-02-15T12:27:06.384Z,8.35
2023-02-15T12:30:22.405Z,8.74
2023-02-15T12:33:32.566Z,9.01
2023-02-15T12:36:47.933Z,9.32
2023-02-15T12:39:58.466Z,9.27
2023-02-15T12:43:09.201Z,9.35
2023-02-15T12:46:25.320Z,9.14
2023-02-15T12:49:30.842Z,9.39
2023-02-15T12:52:33.933Z,9.38
2023-02-15T12:55:37.598Z,9.52
2023-02-15T12:58:42.299Z,9.74
2023-02-15T13:01:46.950Z,9.90
2023-02-15T13:04:52.816Z,10.04
2023-02-15T13:07:59.220Z,10.11
2023-02-15T13:11:06.615Z,10.10
2023-02-15T13:14:21.806Z,9.82
2023-02-15T13:17:30.498Z,10.07
2023-02-15T13:20:37.491Z,9.93
2023-02-15T13:23:44.324Z,9.97
2023-02-15T13:26:49.001Z,9.90
2023-02-15T13:29:59.158Z,9.91
2023-02-15T13:33:07.317Z,9.60
2023-02-15T13:36:21.291Z,9.62
2023-02-15T13:39:32.449Z,9.81
2023-02-15T13:42:42.240Z,9.97
2023-02-15T13:45:59.350Z,10.41
2023-02-15T13:49:19.749Z,10.78
2023-02-15T13:52:26.228Z,10.97
2023-02-15T13:55:39.137Z,11.07
2023-02-15T13:59:10.661Z,11.28
2023-02-15T14:02:51.715Z,11.08
2023-02-15T14:06:13.880Z,11.05
2023-02-15T14:09:34.753Z,11.20
2023-02-15T14:12:55.121Z,11.30
2023-02-15T14:16:05.405Z,11.51
2023-02-15T14:19:19.106Z,11.33
2023-02-15T14:22:32.886Z,10.82
2023-02-15T14:25:46.836Z,10.83
2023-02-15T14:29:00.990Z,10.68
2023-02-15T14:32:32.286Z,11.11
2023-02-15T14:35:38.113Z,11.51
2023-02-15T14:38:56.818Z,11.83
2023-02-15T14:42:09.445Z,11.97
2023-02-15T14:45:26.660Z,11.90
2023-02-15T14:48:38.270Z,11.97
2023-02-15T14:52:02.242Z,12.00
2023-02-15T14:55:11.110Z,11.85
2023-02-15T14:58:16.100Z,11.75
2023-02-15T15:01:28.765Z,11.39
2023-02-15T15:04:34.248Z,11.20
2023-02-15T15:07:46.986Z,11.12
2023-02-15T15:10:50.063Z,10.94
2023-02-15T15:13:59.490Z,10.67
2023-02-15T15:17:04.108Z,10.40
2023-02-15T15:20:15.022Z,10.35
2023-02-15T15:23:43.398Z,10.19
2023-02-15T15:26:51.738Z,10.03
2023-02-15T15:29:56.152Z,10.10
2023-02-15T15:33:15.186Z,10.13
2023-02-15T15:36:55.463Z,10.06
2023-02-15T15:40:54.941Z,9.98
2023-02-15T15:44:46.034Z,9.84
2023-02-15T15:48:16.764Z,9.72
2023-02-15T15:51:22.518Z,9.62
2023-02-15T15:54:28.365Z,9.39
2023-02-15T15:57:37.039Z,9.22
2023-02-15T16:00:45.498Z,9.04
2023-02-15T16:03:56.149Z,8.91
2023-02-15T16:07:05.911Z,8.77
2023-02-15T16:10:24.362Z,8.52
2023-02-15T16:13:28.050Z,8.38
2023-02-15T16:16:32.012Z,8.09
2023-02-15T16:19:41.125Z,7.83
2023-02-15T16:22:44.326Z,7.66
2023-02-15T16:25:57.435Z,7.71
2023-02-15T16:29:02.528Z,7.69
2023-02-15T16:32:18.227Z,7.52
2023-02-15T16:35:24.872Z,7.28
2023-02-15T16:39:08.786Z,7.20
2023-02-15T16:42:14.532Z,7.02
2023-02-15T16:45:21.917Z,6.97
2023-02-15T16:48:28.706Z,6.81
2023-02-15T16:51:36.282Z,6.45
2023-02-15T16:54:43.144Z,6.30
2023-02-15T16:57:46.434Z,6.22
2023-02-15T17:00:49.709Z,6.21
2023-02-15T17:04:13.321Z,6.22
2023-02-15T17:07:20.601Z,6.10
2023-02-15T17:10:34.644Z,6.05
2023-02-15T17:13:37.766Z,5.95
2023-02-15T17:16:45.561Z,5.89
2023-02-15T17:19:52.824Z,5.81
2023-02-15T17:22:57.868Z,5.77
2023-02-15T17:26:04.578Z,5.62
2023-02-15T17:29:18.675Z,5.40
2023-02-15T17:32:26.188Z,5.34
2023-02-15T17:35:31.170Z,5.40
2023-02-15T17:38:39.527Z,5.32
2023-02-15T17:41:43.791Z,5.24
2023-02-15T17:44:46.835Z,5.12
2023-02-15T17:47:51.960Z,5.10
2023-02-15T17:50:58.146Z,4.99
2023-02-15T17:54:20.597Z,4.91
2023-02-15T17:57:23.680Z,4.85
2023-02-15T18:00:44.342Z,4.81
2023-02-15T18:04:08.942Z,4.72
2023-02-15T18:07:32.620Z,4.59
2023-02-15T18:10:59.467Z,4.45
2023-02-15T18:14:02.631Z,4.39
2023-02-15T18:17:06.732Z,4.35
2023-02-15T18:20:20.517Z,4.29
2023-02-15T18:23:23.544Z,4.27
2023-02-15T18:26:29.297Z,4.26
2023-02-15T18:29:32.633Z,4.22
2023-02-15T18:32:41.391Z,4.16
2023-02-15T18:35:50.044Z,4.14
2023-02-15T18:38:54.304Z,4.12
2023-02-15T18:41:58.874Z,4.03
2023-02-15T18:45:17.362Z,3.99
2023-02-15T18:48:20.533Z,3.89
2023-02-15T18:51:25.061Z,3.85
2023-02-15T18:54:28.846Z,3.83
2023-02-15T18:57:33.998Z,3.78
2023-02-15T19:00:37.106Z,3.67
2023-02-15T19:03:40.153Z,3.63
2023-02-15T19:06:48.044Z,3.58
2023-02-15T19:09:54.641Z,3.49
2023-02-15T19:12:59.685Z,3.47
2023-02-15T19:16:04.946Z,3.39
2023-02-15T19:19:08.452Z,3.36
2023-02-15T19:22:15.728Z,3.32
2023-02-15T19:25:23.810Z,3.28
2023-02-15T19:28:33.692Z,3.23
2023-02-15T19:31:37.135Z,3.16
2023-02-15T19:34:40.641Z,3.13
2023-02-15T19:37:47.307Z,3.09
2023-02-15T19:40:51.253Z,3.08
2023-02-15T19:43:57.059Z,3.04
2023-02-15T19:47:00.971Z,2.91
2023-02-15T19:50:04.892Z,2.90
2023-02-15T19:53:19.603Z,2.86
2023-02-15T19:56:24.605Z,2.82
2023-02-15T19:59:31.437Z,2.80
2023-02-15T20:02:34.566Z,2.64
2023-02-15T20:05:38.706Z,2.62
2023-02-15T20:08:43.064Z,2.66
2023-02-15T20:11:46.627Z,2.64
2023-02-15T20:14:51.253Z,2.63
2023-02-15T20:17:55.608Z,2.62
2023-02-15T20:21:00.435Z,2.60
2023-02-15T20:24:05.393Z,2.52
2023-02-15T20:27:16.442Z,2.49
2023-02-15T20:30:24.486Z,2.48
2023-02-15T20:33:27.923Z,2.46
2023-02-15T20:36:30.996Z,2.41
2023-02-15T20:39:35.039Z,2.40
2023-02-15T20:42:38.179Z,2.38
2023-02-15T20:45:42.674Z,2.37
2023-02-15T20:48:45.839Z,2.34
2023-02-15T20:51:49.506Z,2.31
2023-02-15T20:54:52.717Z,2.30
2023-02-15T20:57:56.839Z,2.28
2023-02-15T21:01:01.515Z,2.23
2023-02-15T21:04:10.325Z,2.22
2023-02-15T21:07:16.937Z,2.15
2023-02-15T21:10:22.921Z,2.17
2023-02-15T21:13:29.101Z,2.11
2023-02-15T21:16:34.081Z,2.09
2023-02-15T21:19:40.799Z,2.06
2023-02-15T21:22:44.957Z,2.02
2023-02-15T21:25:48.395Z,1.99
2023-02-15T21:28:52.337Z,1.96
2023-02-15T21:31:58.321Z,1.89
2023-02-15T21:35:01.595Z,1.81
2023-02-15T21:38:05.836Z,1.77
2023-02-15T21:41:34.446Z,1.75
2023-02-15T21:44:56.835Z,1.76
2023-02-15T21:48:02.779Z,1.74
2023-02-15T21:51:20.223Z,1.66
2023-02-15T21:54:28.992Z,1.61
2023-02-15T21:57:32.403Z,1.61
2023-02-15T22:00:35.611Z,1.60
2023-02-15T22:03:40.488Z,1.59
2023-02-15T22:06:43.668Z,1.54
2023-02-15T22:09:46.837Z,1.48
2023-02-15T22:12:50.840Z,1.44
2023-02-15T22:15:54.183Z,1.38
2023-02-15T22:19:01.616Z,1.36
2023-02-15T22:22:04.788Z,1.34
2023-02-15T22:25:08.807Z,1.30
2023-02-15T22:28:17.055Z,1.30
2023-02-15T22:31:22.358Z,1.27
2023-02-15T22:34:31.992Z,1.23
2023-02-15T22:37:35.074Z,1.21
2023-02-15T22:40:38.304Z,1.19
2023-02-15T22:43:43.952Z,1.16
2023-02-15T22:46:47.099Z,1.13
2023-02-15T22:49:51.653Z,1.10
2023-02-15T22:52:55.177Z,1.09
2023-02-15T22:56:01.830Z,1.04
2023-02-15T22:59:08.908Z,0.95
2023-02-15T23:02:16.090Z,0.91
2023-02-15T23:05:24.035Z,0.91
2023-02-15T23:08:27.111Z,0.88
2023-02-15T23:11:30.418Z,0.92
2023-02-15T23:14:37.302Z,0.96
2023-02-15T23:17:40.459Z,0.95
2023-02-15T23:20:45.739Z,0.92
2023-02-15T23:23:51.601Z,0.89
2023-02-15T23:26:55.093Z,0.89
2023-02-15T23:29:58.227Z,0.83
2023-02-15T23:33:01.462Z,0.82
2023-02-15T23:36:07.108Z,0.84
2023-02-15T23:39:33.065Z,0.78
2023-02-15T23:42:36.753Z,0.75
2023-02-15T23:45:40.580Z,0.77
2023-02-15T23:48:44.092Z,0.81
2023-02-15T23:51:51.655Z,0.82
2023-02-15T23:54:54.967Z,0.81
2023-02-15T23:57:58.582Z,0.79
